createdAt,value
2024-04-18T00:01:26.645Z,72.22
2024-04-18T00:03:53.673Z,70.03
2024-04-18T00:06:20.650Z,67.03
2024-04-18T00:08:47.481Z,65.35
2024-04-18T00:11:16.126Z,65.20
2024-04-18T00:13:43.011Z,67.32
2024-04-18T00:16:09.800Z,64.68
2024-04-18T00:18:36.719Z,63.70
2024-04-18T00:21:03.735Z,62.03
2024-04-18T00:23:30.561Z,62.08
2024-04-18T00:25:57.375Z,61.78
2024-04-18T00:28:24.214Z,62.13
2024-04-18T00:30:51.095Z,62.78
2024-04-18T00:33:17.939Z,65.65
2024-04-18T00:35:44.778Z,65.20
2024-04-18T00:38:15.279Z,65.80
2024-04-18T00:40:43.359Z,69.38
2024-04-18T00:43:10.213Z,71.57
2024-04-18T00:45:37.799Z,71.35
2024-04-18T00:48:05.450Z,72.13
2024-04-18T00:50:32.347Z,73.60
2024-04-18T00:53:00.259Z,76.07
2024-04-18T00:55:29.858Z,76.38
2024-04-18T00:57:58.004Z,75.22
2024-04-18T01:00:25.705Z,73.97
2024-04-18T01:02:52.640Z,75.10
2024-04-18T01:05:19.641Z,73.32
2024-04-18T01:07:46.512Z,75.95
2024-04-18T01:10:13.407Z,77.88
2024-04-18T01:12:40.215Z,79.03
2024-04-18T01:15:07.309Z,77.15
2024-04-18T01:17:34.222Z,74.97
2024-04-18T01:20:01.493Z,74.38
2024-04-18T01:22:28.682Z,74.40
2024-04-18T01:24:55.692Z,73.50
2024-04-18T01:27:22.557Z,74.82
2024-04-18T01:29:49.387Z,73.55
2024-04-18T01:32:16.231Z,77.35
2024-04-18T01:34:43.091Z,75.80
2024-04-18T01:37:12.373Z,76.50
2024-04-18T01:39:39.326Z,76.25
2024-04-18T01:42:06.228Z,75.20
2024-04-18T01:44:33.051Z,76.43
2024-04-18T01:46:59.887Z,75.10
2024-04-18T01:49:26.733Z,74.43
2024-04-18T01:51:53.672Z,73.20
2024-04-18T01:54:20.549Z,72.82
2024-04-18T01:56:47.505Z,72.63
2024-04-18T01:59:14.348Z,74.22
2024-04-18T02:01:41.199Z,75.07
2024-04-18T02:04:08.241Z,76.75
2024-04-18T02:06:35.120Z,76.70
2024-04-18T02:09:01.947Z,78.65
2024-04-18T02:11:28.763Z,79.30
2024-04-18T02:13:55.565Z,77.85
2024-04-18T02:16:22.391Z,84.35
2024-04-18T02:18:49.405Z,91.45
2024-04-18T02:21:16.501Z,90.50
2024-04-18T02:23:43.309Z,93.43
2024-04-18T02:26:10.204Z,88.53
2024-04-18T02:28:38.258Z,93.15
2024-04-18T02:31:05.842Z,99.07
2024-04-18T02:33:33.266Z,101.20
2024-04-18T02:36:00.230Z,102.78
2024-04-18T02:38:27.691Z,103.60
2024-04-18T02:41:08.820Z,98.97
2024-04-18T02:43:35.798Z,104.15
2024-04-18T02:46:02.672Z,102.63
2024-04-18T02:48:29.693Z,103.05
2024-04-18T02:50:56.608Z,107.35
2024-04-18T02:53:23.459Z,106.88
2024-04-18T02:55:50.352Z,108.85
2024-04-18T02:58:17.398Z,106.60
2024-04-18T03:00:44.457Z,106.53
2024-04-18T03:03:11.354Z,111.40
2024-04-18T03:05:38.189Z,107.93
2024-04-18T03:08:05.439Z,111.43
2024-04-18T03:10:32.280Z,112.28
2024-04-18T03:12:59.116Z,107.30
2024-04-18T03:15:26.030Z,110.03
2024-04-18T03:17:54.626Z,116.93
2024-04-18T03:20:22.100Z,109.55
2024-04-18T03:22:49.406Z,107.95
2024-04-18T03:25:16.885Z,109.55
2024-04-18T03:27:43.748Z,109.50
2024-04-18T03:30:10.929Z,110.10
2024-04-18T03:32:38.393Z,111.55
2024-04-18T03:35:05.885Z,113.45
2024-04-18T03:37:34.388Z,110.72
2024-04-18T03:40:02.425Z,113.93
2024-04-18T03:42:29.296Z,117.47
2024-04-18T03:44:56.230Z,108.35
2024-04-18T03:47:23.227Z,113.43
2024-04-18T03:49:50.222Z,110.88
2024-04-18T03:52:17.088Z,115.20
2024-04-18T03:54:55.983Z,117.05
2024-04-18T03:57:28.724Z,115.32
2024-04-18T03:59:55.602Z,109.90
2024-04-18T04:02:22.457Z,110.47
2024-04-18T04:04:51.432Z,111.97
2024-04-18T04:07:18.533Z,111.70
2024-04-18T04:09:45.479Z,118.65
2024-04-18T04:12:12.534Z,122.60
2024-04-18T04:14:39.394Z,119.38
2024-04-18T04:17:06.585Z,124.80
2024-04-18T04:19:33.483Z,121.28
2024-04-18T04:22:00.734Z,131.02
2024-04-18T04:24:27.638Z,122.10
2024-04-18T04:26:54.653Z,132.27
2024-04-18T04:29:21.979Z,131.23
2024-04-18T04:31:48.944Z,120.43
2024-04-18T04:34:15.867Z,116.93
2024-04-18T04:36:42.769Z,110.30
2024-04-18T04:39:10.066Z,106.00
2024-04-18T04:41:36.883Z,113.85
2024-04-18T04:44:03.659Z,111.50
2024-04-18T04:46:30.744Z,108.20
2024-04-18T04:48:57.722Z,104.35
2024-04-18T04:51:24.643Z,131.20
2024-04-18T04:53:54.205Z,127.20
2024-04-18T04:56:21.460Z,116.80
2024-04-18T04:58:48.516Z,116.18
2024-04-18T05:01:15.465Z,118.60
2024-04-18T05:03:42.431Z,122.30
2024-04-18T05:06:09.281Z,124.75
2024-04-18T05:08:36.153Z,115.80
2024-04-18T05:11:03.414Z,119.15
2024-04-18T05:13:30.295Z,123.18
2024-04-18T05:15:57.179Z,125.68
2024-04-18T05:18:24.434Z,124.55
2024-04-18T05:20:51.281Z,124.30
2024-04-18T05:23:18.385Z,123.13
2024-04-18T05:25:45.201Z,130.02
2024-04-18T05:28:14.316Z,137.43
2024-04-18T05:31:02.586Z,145.52
2024-04-18T05:33:30.461Z,136.75
2024-04-18T05:35:57.863Z,139.98
2024-04-18T05:38:24.966Z,139.20
2024-04-18T05:40:51.995Z,141.82
2024-04-18T05:43:19.270Z,146.65
2024-04-18T05:45:47.164Z,143.60
2024-04-18T05:48:14.133Z,137.13
2024-04-18T05:50:42.336Z,126.85
2024-04-18T05:53:09.232Z,129.23
2024-04-18T05:55:36.197Z,125.88
2024-04-18T05:58:03.433Z,118.45
2024-04-18T06:00:30.332Z,112.78
2024-04-18T06:02:57.278Z,102.20
2024-04-18T06:05:24.129Z,102.78
2024-04-18T06:07:50.955Z,100.30
2024-04-18T06:10:18.682Z,97.85
2024-04-18T06:12:45.580Z,102.40
2024-04-18T06:15:12.389Z,98.22
2024-04-18T06:17:39.248Z,94.15
2024-04-18T06:20:06.852Z,89.05
2024-04-18T06:22:33.822Z,91.40
2024-04-18T06:25:00.798Z,93.70
2024-04-18T06:27:27.749Z,116.43
2024-04-18T06:29:54.653Z,109.18
2024-04-18T06:32:22.082Z,97.45
2024-04-18T06:34:48.954Z,101.68
2024-04-18T06:37:16.056Z,99.50
2024-04-18T06:39:43.126Z,110.18
2024-04-18T06:42:09.975Z,107.85
2024-04-18T06:44:37.439Z,110.20
2024-04-18T06:47:04.519Z,112.57
2024-04-18T06:49:31.391Z,107.68
2024-04-18T06:51:58.297Z,108.00
2024-04-18T06:54:25.815Z,113.28
2024-04-18T06:56:52.744Z,110.10
2024-04-18T06:59:20.576Z,108.35
2024-04-18T07:01:48.195Z,108.80
2024-04-18T07:04:15.170Z,101.90
2024-04-18T07:06:42.123Z,98.90
2024-04-18T07:09:08.994Z,97.32
2024-04-18T07:11:35.891Z,93.15
2024-04-18T07:14:02.885Z,92.20
2024-04-18T07:16:30.093Z,89.45
2024-04-18T07:18:57.266Z,95.45
2024-04-18T07:21:24.348Z,98.88
2024-04-18T07:23:51.215Z,98.28
2024-04-18T07:26:18.650Z,102.47
2024-04-18T07:28:45.454Z,99.07
2024-04-18T07:31:12.323Z,98.32
2024-04-18T07:33:39.317Z,98.10
2024-04-18T07:36:06.380Z,94.32
2024-04-18T07:38:33.823Z,89.25
2024-04-18T07:41:00.709Z,85.57
2024-04-18T07:43:27.600Z,89.72
2024-04-18T07:45:54.638Z,84.10
2024-04-18T07:48:21.663Z,77.20
2024-04-18T07:50:49.801Z,78.13
2024-04-18T07:53:16.678Z,81.88
2024-04-18T07:55:43.583Z,78.43
2024-04-18T07:58:11.222Z,77.78
2024-04-18T08:00:39.636Z,78.03
2024-04-18T08:03:08.918Z,85.70
2024-04-18T08:05:39.112Z,84.95
2024-04-18T08:08:10.395Z,82.03
2024-04-18T08:10:52.911Z,72.47
2024-04-18T08:13:30.260Z,65.35
2024-04-18T08:16:02.749Z,69.65
2024-04-18T08:18:30.067Z,72.53
2024-04-18T08:21:00.434Z,74.97
2024-04-18T08:23:27.585Z,77.15
2024-04-18T08:25:54.492Z,70.47
2024-04-18T08:28:21.474Z,61.85
2024-04-18T08:30:48.360Z,56.33
2024-04-18T08:33:15.359Z,57.53
2024-04-18T08:35:45.098Z,50.03
2024-04-18T08:38:13.449Z,54.13
2024-04-18T08:40:45.610Z,50.88
2024-04-18T08:43:13.427Z,45.03
2024-04-18T08:45:42.182Z,35.83
2024-04-18T08:48:11.908Z,33.28
2024-04-18T08:50:42.147Z,29.25
2024-04-18T08:53:10.997Z,26.17
2024-04-18T08:55:40.403Z,24.40
2024-04-18T08:58:10.541Z,21.30
2024-04-18T09:00:43.631Z,23.23
2024-04-18T09:03:12.115Z,23.17
2024-04-18T09:05:41.662Z,28.25
2024-04-18T09:08:10.917Z,28.42
2024-04-18T09:10:38.000Z,41.20
2024-04-18T09:13:07.491Z,46.85
2024-04-18T09:15:34.766Z,47.25
2024-04-18T09:18:10.958Z,40.58
2024-04-18T09:20:39.712Z,34.72
2024-04-18T09:23:07.568Z,28.00
2024-04-18T09:25:36.377Z,27.70
2024-04-18T09:28:05.850Z,25.85
2024-04-18T09:30:32.742Z,30.42
2024-04-18T09:33:05.264Z,29.15
2024-04-18T09:35:35.838Z,30.05
2024-04-18T09:38:09.294Z,29.60
2024-04-18T09:40:44.353Z,31.35
2024-04-18T09:43:31.692Z,26.95
2024-04-18T09:46:04.227Z,23.52
2024-04-18T09:48:32.394Z,23.92
2024-04-18T09:51:00.822Z,23.70
2024-04-18T09:53:29.306Z,23.05
2024-04-18T09:55:58.054Z,22.67
2024-04-18T09:58:27.530Z,21.77
2024-04-18T10:00:56.162Z,21.60
2024-04-18T10:03:24.200Z,22.02
2024-04-18T10:05:54.603Z,22.17
2024-04-18T10:08:31.193Z,23.27
2024-04-18T10:10:58.783Z,24.58
2024-04-18T10:13:26.697Z,26.17
2024-04-18T10:16:13.856Z,25.05
2024-04-18T10:18:41.815Z,31.50
2024-04-18T10:21:33.458Z,36.95
2024-04-18T10:24:11.087Z,40.83
2024-04-18T10:26:38.978Z,48.33
2024-04-18T10:29:21.363Z,51.17
2024-04-18T10:31:48.234Z,51.85
2024-04-18T10:34:15.549Z,53.83
2024-04-18T10:36:44.613Z,63.70
2024-04-18T10:39:27.056Z,62.88
2024-04-18T10:42:00.554Z,69.72
2024-04-18T10:44:27.971Z,67.70
2024-04-18T10:46:56.218Z,67.20
2024-04-18T10:49:23.971Z,74.85
2024-04-18T10:51:51.449Z,56.33
2024-04-18T10:54:18.763Z,55.22
2024-04-18T10:56:45.825Z,54.45
2024-04-18T10:59:12.915Z,46.75
2024-04-18T11:01:40.743Z,49.72
2024-04-18T11:04:07.765Z,53.25
2024-04-18T11:06:38.074Z,49.47
2024-04-18T11:09:05.096Z,55.88
2024-04-18T11:11:34.720Z,61.10
2024-04-18T11:14:02.134Z,55.10
2024-04-18T11:16:28.962Z,62.20
2024-04-18T11:18:56.381Z,60.50
2024-04-18T11:21:25.596Z,53.72
2024-04-18T11:23:53.247Z,41.00
2024-04-18T11:26:20.776Z,43.97
2024-04-18T11:28:56.261Z,39.03
2024-04-18T11:31:23.461Z,52.80
2024-04-18T11:33:50.476Z,52.97
2024-04-18T11:36:18.036Z,44.38
2024-04-18T11:38:44.953Z,48.65
2024-04-18T11:41:12.369Z,50.70
2024-04-18T11:43:39.288Z,50.70
2024-04-18T11:46:06.213Z,41.40
2024-04-18T11:48:33.267Z,42.05
2024-04-18T11:51:00.229Z,39.10
2024-04-18T11:53:27.035Z,30.30
2024-04-18T11:55:55.053Z,26.00
2024-04-18T11:58:23.085Z,23.45
2024-04-18T12:00:49.916Z,22.08
2024-04-18T12:03:16.860Z,22.13
2024-04-18T12:05:43.792Z,20.80
2024-04-18T12:08:10.590Z,19.90
2024-04-18T12:10:37.448Z,19.38
2024-04-18T12:13:04.687Z,19.13
2024-04-18T12:15:34.457Z,19.33
2024-04-18T12:18:03.348Z,18.52
2024-04-18T12:20:30.394Z,18.63
2024-04-18T12:22:57.349Z,18.38
2024-04-18T12:25:24.281Z,17.77
2024-04-18T12:27:51.251Z,17.88
2024-04-18T12:30:18.160Z,17.90
2024-04-18T12:32:45.051Z,16.92
2024-04-18T12:35:11.992Z,16.17
2024-04-18T12:37:38.855Z,14.88
2024-04-18T12:40:06.605Z,15.18
2024-04-18T12:42:35.240Z,15.23
2024-04-18T12:45:02.384Z,15.40
2024-04-18T12:47:29.455Z,15.70
2024-04-18T12:49:56.433Z,14.98
2024-04-18T12:52:23.417Z,13.60
2024-04-18T12:54:50.349Z,11.80
2024-04-18T12:57:17.217Z,12.38
2024-04-18T12:59:44.264Z,13.10
2024-04-18T13:02:13.139Z,11.98
2024-04-18T13:04:40.090Z,11.57
2024-04-18T13:07:07.240Z,11.80
2024-04-18T13:09:34.552Z,11.75
2024-04-18T13:12:05.939Z,10.10
2024-04-18T13:14:32.915Z,10.68
2024-04-18T13:17:01.435Z,10.68
2024-04-18T13:19:28.238Z,10.55
2024-04-18T13:21:57.429Z,9.75
2024-04-18T13:24:25.767Z,10.65
2024-04-18T13:26:53.711Z,10.35
2024-04-18T13:29:21.402Z,10.40
2024-04-18T13:31:48.715Z,10.93
2024-04-18T13:34:15.582Z,10.85
2024-04-18T13:36:42.582Z,10.18
2024-04-18T13:39:10.075Z,10.20
2024-04-18T13:41:42.022Z,10.93
2024-04-18T13:44:08.835Z,12.20
2024-04-18T13:46:35.831Z,11.13
2024-04-18T13:49:02.887Z,12.30
2024-04-18T13:51:30.093Z,12.35
2024-04-18T13:53:57.476Z,11.65
2024-04-18T13:56:27.632Z,11.68
2024-04-18T13:58:54.470Z,11.48
2024-04-18T14:01:21.401Z,12.35
2024-04-18T14:03:48.301Z,12.63
2024-04-18T14:06:15.240Z,12.05
2024-04-18T14:08:42.345Z,10.80
2024-04-18T14:11:09.353Z,11.57
2024-04-18T14:13:36.187Z,11.27
2024-04-18T14:16:21.864Z,12.40
2024-04-18T14:18:52.094Z,13.82
2024-04-18T14:21:20.012Z,25.52
2024-04-18T14:23:46.907Z,22.23
2024-04-18T14:26:13.769Z,29.30
2024-04-18T14:28:40.593Z,28.00
2024-04-18T14:31:07.457Z,44.05
2024-04-18T14:33:35.040Z,56.72
2024-04-18T14:36:02.218Z,60.25
2024-04-18T14:38:29.832Z,56.42
2024-04-18T14:41:05.572Z,64.75
2024-04-18T14:43:38.093Z,70.70
2024-04-18T14:46:05.248Z,59.30
2024-04-18T14:48:34.738Z,80.63
2024-04-18T14:51:01.832Z,84.88
2024-04-18T14:53:28.703Z,92.50
2024-04-18T14:55:55.751Z,89.78
2024-04-18T14:58:22.738Z,98.78
2024-04-18T15:00:52.248Z,97.95
2024-04-18T15:03:19.867Z,84.60
2024-04-18T15:05:54.458Z,99.25
2024-04-18T15:08:21.613Z,107.15
2024-04-18T15:10:48.625Z,100.85
2024-04-18T15:13:15.595Z,97.18
2024-04-18T15:15:42.920Z,103.13
2024-04-18T15:18:10.033Z,91.47
2024-04-18T15:20:37.006Z,92.47
2024-04-18T15:23:04.199Z,90.13
2024-04-18T15:25:31.069Z,92.10
2024-04-18T15:27:58.060Z,95.65
2024-04-18T15:30:25.048Z,98.38
2024-04-18T15:32:52.486Z,104.65
2024-04-18T15:35:19.304Z,95.30
2024-04-18T15:37:46.158Z,75.18
2024-04-18T15:40:15.903Z,67.50
2024-04-18T15:42:44.474Z,54.08
2024-04-18T15:45:11.411Z,61.63
2024-04-18T15:47:38.541Z,58.75
2024-04-18T15:50:05.709Z,49.15
2024-04-18T15:52:34.240Z,57.65
2024-04-18T15:55:09.038Z,56.88
2024-04-18T15:57:42.910Z,49.58
2024-04-18T16:00:11.151Z,45.97
2024-04-18T16:02:38.303Z,34.53
2024-04-18T16:05:05.712Z,29.63
2024-04-18T16:07:32.614Z,30.20
2024-04-18T16:09:59.994Z,26.95
2024-04-18T16:12:27.428Z,23.67
2024-04-18T16:14:54.541Z,23.73
2024-04-18T16:17:21.520Z,27.70
2024-04-18T16:19:49.636Z,27.70
2024-04-18T16:22:16.818Z,49.92
2024-04-18T16:24:43.807Z,64.57
2024-04-18T16:27:10.756Z,162.65
2024-04-18T16:29:37.692Z,253.93
2024-04-18T16:32:04.888Z,291.13
2024-04-18T16:34:31.865Z,278.45
2024-04-18T16:37:09.418Z,266.55
2024-04-18T16:39:40.210Z,260.08
2024-04-18T16:42:07.681Z,244.45
2024-04-18T16:44:34.594Z,252.55
2024-04-18T16:47:01.453Z,240.05
2024-04-18T16:49:28.502Z,232.07
2024-04-18T16:51:55.521Z,245.40
2024-04-18T16:54:22.426Z,228.65
2024-04-18T16:56:49.365Z,218.50
2024-04-18T16:59:16.332Z,226.30
2024-04-18T17:01:43.271Z,246.43
2024-04-18T17:04:10.284Z,241.88
2024-04-18T17:06:45.831Z,235.52
2024-04-18T17:09:20.906Z,259.48
2024-04-18T17:11:48.094Z,230.70
2024-04-18T17:14:15.840Z,210.88
2024-04-18T17:16:42.644Z,223.80
2024-04-18T17:19:09.567Z,229.02
2024-04-18T17:21:36.864Z,254.32
2024-04-18T17:24:04.056Z,250.60
2024-04-18T17:26:31.402Z,224.38
2024-04-18T17:28:58.246Z,234.05
2024-04-18T17:31:25.165Z,212.35
2024-04-18T17:33:52.055Z,208.93
2024-04-18T17:36:19.159Z,209.63
2024-04-18T17:38:50.375Z,212.18
2024-04-18T17:41:17.301Z,211.55
2024-04-18T17:43:47.124Z,219.00
2024-04-18T17:46:17.346Z,213.75
2024-04-18T17:48:45.617Z,218.57
2024-04-18T17:51:12.573Z,221.25
2024-04-18T17:53:39.787Z,207.73
2024-04-18T17:56:06.761Z,204.10
2024-04-18T17:58:33.662Z,213.38
2024-04-18T18:01:00.722Z,210.52
2024-04-18T18:03:27.659Z,213.70
2024-04-18T18:05:55.135Z,220.70
2024-04-18T18:08:22.054Z,248.75
2024-04-18T18:10:48.969Z,228.55
2024-04-18T18:13:18.923Z,212.88
2024-04-18T18:15:46.229Z,226.97
2024-04-18T18:18:17.376Z,274.13
2024-04-18T18:20:44.567Z,285.10
2024-04-18T18:23:14.552Z,269.00
2024-04-18T18:25:43.437Z,303.63
2024-04-18T18:28:10.273Z,258.50
2024-04-18T18:30:39.322Z,255.18
2024-04-18T18:33:06.460Z,252.18
2024-04-18T18:35:33.340Z,255.32
2024-04-18T18:38:00.268Z,234.40
2024-04-18T18:40:27.262Z,241.90
2024-04-18T18:42:54.058Z,235.05
2024-04-18T18:45:20.961Z,231.57
2024-04-18T18:47:47.872Z,243.85
2024-04-18T18:50:14.845Z,223.50
2024-04-18T18:52:44.526Z,232.80
2024-04-18T18:55:11.363Z,213.75
2024-04-18T18:57:38.226Z,245.05
2024-04-18T19:00:05.494Z,207.95
2024-04-18T19:02:32.496Z,215.18
2024-04-18T19:04:59.389Z,192.32
2024-04-18T19:07:46.082Z,196.55
2024-04-18T19:10:13.209Z,205.13
2024-04-18T19:12:40.195Z,189.52
2024-04-18T19:15:07.386Z,185.43
2024-04-18T19:17:37.837Z,177.73
2024-04-18T19:20:05.086Z,209.98
2024-04-18T19:22:32.057Z,225.18
2024-04-18T19:24:58.934Z,174.73
2024-04-18T19:27:25.810Z,209.65
2024-04-18T19:29:52.715Z,170.00
2024-04-18T19:32:20.676Z,165.65
2024-04-18T19:34:47.596Z,168.30
2024-04-18T19:37:14.458Z,168.68
2024-04-18T19:39:41.455Z,179.43
2024-04-18T19:42:08.839Z,186.73
2024-04-18T19:44:36.020Z,196.93
2024-04-18T19:47:04.374Z,166.80
2024-04-18T19:49:35.727Z,165.48
2024-04-18T19:52:06.155Z,155.82
2024-04-18T19:54:52.166Z,156.35
2024-04-18T19:57:25.024Z,160.85
2024-04-18T19:59:53.976Z,161.32
2024-04-18T20:02:21.000Z,163.57
2024-04-18T20:04:51.289Z,170.60
2024-04-18T20:07:18.167Z,177.88
2024-04-18T20:09:45.016Z,167.38
2024-04-18T20:12:11.939Z,166.20
2024-04-18T20:14:38.816Z,185.88
2024-04-18T20:17:05.860Z,199.43
2024-04-18T20:19:32.728Z,199.15
2024-04-18T20:21:59.607Z,208.68
2024-04-18T20:24:28.058Z,251.10
2024-04-18T20:26:56.192Z,225.80
2024-04-18T20:29:23.120Z,208.45
2024-04-18T20:31:49.959Z,195.20
2024-04-18T20:34:16.882Z,186.00
2024-04-18T20:36:43.777Z,190.32
2024-04-18T20:39:10.663Z,184.48
2024-04-18T20:41:37.608Z,191.35
2024-04-18T20:44:04.577Z,169.90
2024-04-18T20:46:31.465Z,173.57
2024-04-18T20:48:58.459Z,197.07
2024-04-18T20:51:25.500Z,175.68
2024-04-18T20:53:52.300Z,177.15
2024-04-18T20:56:19.129Z,183.88
2024-04-18T20:58:46.234Z,211.93
2024-04-18T21:01:13.318Z,170.75
2024-04-18T21:03:40.576Z,196.07
2024-04-18T21:06:07.699Z,209.80
2024-04-18T21:08:34.936Z,221.85
2024-04-18T21:11:02.022Z,216.73
2024-04-18T21:13:29.027Z,209.93
2024-04-18T21:16:02.390Z,207.95
2024-04-18T21:18:29.784Z,183.63
2024-04-18T21:20:57.458Z,191.63
2024-04-18T21:23:24.492Z,195.30
2024-04-18T21:25:51.637Z,201.75
2024-04-18T21:28:18.808Z,193.63
2024-04-18T21:30:45.853Z,203.75
2024-04-18T21:33:12.944Z,187.68
2024-04-18T21:35:39.956Z,185.30
2024-04-18T21:38:06.913Z,192.80
2024-04-18T21:40:34.177Z,181.45
2024-04-18T21:43:04.228Z,183.02
2024-04-18T21:45:32.905Z,195.85
2024-04-18T21:48:00.787Z,198.65
2024-04-18T21:50:27.885Z,194.23
2024-04-18T21:52:54.853Z,206.05
2024-04-18T21:55:21.837Z,205.23
2024-04-18T21:57:52.306Z,221.07
2024-04-18T22:00:19.348Z,241.50
2024-04-18T22:02:52.467Z,251.38
2024-04-18T22:05:19.890Z,239.88
2024-04-18T22:07:46.819Z,232.07
2024-04-18T22:10:13.834Z,237.15
2024-04-18T22:12:41.071Z,217.52
2024-04-18T22:15:08.284Z,223.25
2024-04-18T22:17:35.383Z,263.10
2024-04-18T22:20:02.655Z,265.70
2024-04-18T22:22:29.558Z,256.67
2024-04-18T22:24:56.551Z,245.05
2024-04-18T22:27:23.578Z,236.55
2024-04-18T22:29:50.723Z,228.77
2024-04-18T22:32:17.669Z,224.65
2024-04-18T22:34:47.507Z,243.65
2024-04-18T22:37:16.680Z,264.83
2024-04-18T22:39:43.657Z,258.92
2024-04-18T22:42:11.911Z,265.05
2024-04-18T22:44:40.677Z,240.38
2024-04-18T22:47:11.195Z,244.93
2024-04-18T22:49:38.292Z,238.73
2024-04-18T22:52:05.743Z,233.65
2024-04-18T22:54:32.725Z,222.15
2024-04-18T22:57:00.166Z,218.40
2024-04-18T22:59:27.235Z,218.60
2024-04-18T23:01:54.248Z,213.18
2024-04-18T23:04:21.352Z,211.98
2024-04-18T23:06:48.377Z,210.38
2024-04-18T23:09:15.394Z,231.52
2024-04-18T23:11:42.336Z,218.43
2024-04-18T23:14:09.294Z,221.43
2024-04-18T23:16:36.291Z,218.65
2024-04-18T23:19:03.290Z,197.70
2024-04-18T23:21:30.287Z,211.70
2024-04-18T23:23:57.238Z,211.23
2024-04-18T23:26:25.640Z,204.85
2024-04-18T23:28:52.601Z,235.88
2024-04-18T23:31:19.544Z,224.32
2024-04-18T23:33:46.580Z,218.38
2024-04-18T23:36:14.283Z,218.35
2024-04-18T23:38:41.234Z,227.88
2024-04-18T23:41:08.214Z,247.70
2024-04-18T23:43:35.104Z,249.00
2024-04-18T23:46:02.031Z,244.80
2024-04-18T23:48:29.243Z,250.30
2024-04-18T23:50:56.251Z,240.30
2024-04-18T23:53:23.242Z,250.55
2024-04-18T23:55:50.205Z,255.60
2024-04-18T23:58:17.129Z,261.63
